createdAt,value
2024-02-14T00:01:14.893Z,0.98
2024-02-14T00:03:42.390Z,1.03
2024-02-14T00:06:09.507Z,1.09
2024-02-14T00:08:37.079Z,1.11
2024-02-14T00:11:04.136Z,1.29
2024-02-14T00:13:31.635Z,1.30
2024-02-14T00:15:58.518Z,1.33
2024-02-14T00:18:25.893Z,1.41
2024-02-14T00:20:53.063Z,1.48
2024-02-14T00:23:20.384Z,1.46
2024-02-14T00:25:47.267Z,1.48
2024-02-14T00:28:14.561Z,1.46
2024-02-14T00:30:41.395Z,1.45
2024-02-14T00:33:08.966Z,1.46
2024-02-14T00:35:36.197Z,1.43
2024-02-14T00:38:03.625Z,1.42
2024-02-14T00:40:30.588Z,1.41
2024-02-14T00:42:58.233Z,1.39
2024-02-14T00:45:25.449Z,1.38
2024-02-14T00:47:52.816Z,1.36
2024-02-14T00:50:20.504Z,1.39
2024-02-14T00:52:47.715Z,1.37
2024-02-14T00:55:14.879Z,1.39
2024-02-14T00:57:42.478Z,1.40
2024-02-14T01:00:10.191Z,1.38
2024-02-14T01:02:37.667Z,1.40
2024-02-14T01:05:05.989Z,1.41
2024-02-14T01:07:33.406Z,1.51
2024-02-14T01:10:00.351Z,1.52
2024-02-14T01:12:27.669Z,1.52
2024-02-14T01:14:54.933Z,1.53
2024-02-14T01:17:22.184Z,1.60
2024-02-14T01:19:50.078Z,1.59
2024-02-14T01:22:17.719Z,1.66
2024-02-14T01:24:44.906Z,1.73
2024-02-14T01:27:14.538Z,1.73
2024-02-14T01:29:41.643Z,1.78
2024-02-14T01:32:08.858Z,1.81
2024-02-14T01:34:36.015Z,1.84
2024-02-14T01:37:03.678Z,1.86
2024-02-14T01:39:30.691Z,1.85
2024-02-14T01:41:57.912Z,1.88
2024-02-14T01:44:24.886Z,1.93
2024-02-14T01:46:54.244Z,1.99
2024-02-14T01:49:21.212Z,1.96
2024-02-14T01:51:48.450Z,1.96
2024-02-14T01:54:16.196Z,1.98
2024-02-14T01:56:46.282Z,1.93
2024-02-14T01:59:14.378Z,1.93
2024-02-14T02:01:43.986Z,1.89
2024-02-14T02:04:12.999Z,1.87
2024-02-14T02:06:42.880Z,1.84
2024-02-14T02:09:10.238Z,1.78
2024-02-14T02:11:49.183Z,1.73
2024-02-14T02:14:16.851Z,1.68
2024-02-14T02:16:47.242Z,1.64
2024-02-14T02:19:15.174Z,1.60
2024-02-14T02:21:48.358Z,1.59
2024-02-14T02:24:15.303Z,1.57
2024-02-14T02:26:42.603Z,1.57
2024-02-14T02:29:12.379Z,1.55
2024-02-14T02:31:39.645Z,1.54
2024-02-14T02:34:06.937Z,1.49
2024-02-14T02:36:34.591Z,1.44
2024-02-14T02:39:04.554Z,1.40
2024-02-14T02:41:33.058Z,1.34
2024-02-14T02:44:00.252Z,1.33
2024-02-14T02:46:27.545Z,1.33
2024-02-14T02:48:56.384Z,1.32
2024-02-14T02:51:23.741Z,1.33
2024-02-14T02:53:50.654Z,1.34
2024-02-14T02:56:17.910Z,1.31
2024-02-14T02:58:45.493Z,1.27
2024-02-14T03:01:15.765Z,1.21
2024-02-14T03:03:43.962Z,1.15
2024-02-14T03:06:13.590Z,1.09
2024-02-14T03:08:40.695Z,1.04
2024-02-14T03:11:08.903Z,1.03
2024-02-14T03:13:37.137Z,1.05
2024-02-14T03:16:05.431Z,1.03
2024-02-14T03:18:33.494Z,1.04
2024-02-14T03:21:00.937Z,1.03
2024-02-14T03:23:29.342Z,0.99
2024-02-14T03:25:56.734Z,0.97
2024-02-14T03:28:23.737Z,0.95
2024-02-14T03:30:50.890Z,0.95
2024-02-14T03:33:18.018Z,1.01
2024-02-14T03:35:45.368Z,1.02
2024-02-14T03:38:12.546Z,1.01
2024-02-14T03:40:40.016Z,1.00
2024-02-14T03:43:13.145Z,1.00
2024-02-14T03:45:40.502Z,0.96
2024-02-14T03:48:07.739Z,0.94
2024-02-14T03:50:35.286Z,0.91
2024-02-14T03:53:03.014Z,0.85
2024-02-14T03:55:31.444Z,0.79
2024-02-14T03:58:04.539Z,0.74
2024-02-14T04:00:32.506Z,0.70
2024-02-14T04:03:01.888Z,0.68
2024-02-14T04:05:30.599Z,0.71
2024-02-14T04:07:57.696Z,0.71
2024-02-14T04:10:25.337Z,0.69
2024-02-14T04:12:52.393Z,0.70
2024-02-14T04:15:19.667Z,0.69
2024-02-14T04:17:46.653Z,0.71
2024-02-14T04:20:14.045Z,0.70
2024-02-14T04:22:41.021Z,0.65
2024-02-14T04:25:09.172Z,0.58
2024-02-14T04:27:36.038Z,0.59
2024-02-14T04:30:05.866Z,0.52
2024-02-14T04:32:33.305Z,0.57
2024-02-14T04:35:05.401Z,0.54
2024-02-14T04:37:34.498Z,0.57
2024-02-14T04:40:06.954Z,0.53
2024-02-14T04:42:34.466Z,0.58
2024-02-14T04:45:02.687Z,0.54
2024-02-14T04:47:31.024Z,0.52
2024-02-14T04:49:58.783Z,0.51
2024-02-14T04:52:25.723Z,0.49
2024-02-14T04:54:55.439Z,0.51
2024-02-14T04:57:22.365Z,0.55
2024-02-14T04:59:49.607Z,0.59
2024-02-14T05:02:16.735Z,0.62
2024-02-14T05:04:47.131Z,0.66
2024-02-14T05:07:14.668Z,0.71
2024-02-14T05:09:41.931Z,0.76
2024-02-14T05:12:11.959Z,0.79
2024-02-14T05:14:39.772Z,0.84
2024-02-14T05:17:06.894Z,0.92
2024-02-14T05:19:34.207Z,0.95
2024-02-14T05:22:01.252Z,0.93
2024-02-14T05:24:31.735Z,0.95
2024-02-14T05:26:58.757Z,0.95
2024-02-14T05:29:26.102Z,0.94
2024-02-14T05:31:56.647Z,0.93
2024-02-14T05:34:24.199Z,0.89
2024-02-14T05:36:52.182Z,0.91
2024-02-14T05:39:21.891Z,0.84
2024-02-14T05:41:50.385Z,0.76
2024-02-14T05:44:17.788Z,0.68
2024-02-14T05:46:44.836Z,0.61
2024-02-14T05:49:12.256Z,0.54
2024-02-14T05:51:39.214Z,0.49
2024-02-14T05:54:06.724Z,0.48
2024-02-14T05:56:33.738Z,0.43
2024-02-14T05:59:00.975Z,0.43
2024-02-14T06:01:28.357Z,0.45
2024-02-14T06:03:55.816Z,0.45
2024-02-14T06:06:24.734Z,0.44
2024-02-14T06:08:52.047Z,0.42
2024-02-14T06:11:22.307Z,0.38
2024-02-14T06:13:49.485Z,0.36
2024-02-14T06:16:16.610Z,0.37
2024-02-14T06:18:45.455Z,0.35
2024-02-14T06:21:12.582Z,0.33
2024-02-14T06:23:40.551Z,0.34
2024-02-14T06:26:08.124Z,0.42
2024-02-14T06:28:35.337Z,0.58
2024-02-14T06:31:02.354Z,0.77
2024-02-14T06:33:29.966Z,0.93
2024-02-14T06:35:57.461Z,1.02
2024-02-14T06:38:24.943Z,1.17
2024-02-14T06:40:52.305Z,1.25
2024-02-14T06:43:19.562Z,1.32
2024-02-14T06:45:49.024Z,1.42
2024-02-14T06:48:16.393Z,1.47
2024-02-14T06:50:46.030Z,1.58
2024-02-14T06:53:13.251Z,1.75
2024-02-14T06:55:40.301Z,2.22
2024-02-14T06:58:07.750Z,2.72
2024-02-14T07:00:35.147Z,3.00
2024-02-14T07:03:02.656Z,3.43
2024-02-14T07:05:32.771Z,3.96
2024-02-14T07:08:00.071Z,4.29
2024-02-14T07:10:27.197Z,4.32
2024-02-14T07:12:54.450Z,4.57
2024-02-14T07:15:21.936Z,5.43
2024-02-14T07:17:49.351Z,5.86
2024-02-14T07:20:18.537Z,7.18
2024-02-14T07:22:48.828Z,8.18
2024-02-14T07:25:15.924Z,8.81
2024-02-14T07:27:43.406Z,8.77
2024-02-14T07:30:10.780Z,8.69
2024-02-14T07:32:38.285Z,7.80
2024-02-14T07:35:06.493Z,7.46
2024-02-14T07:37:33.896Z,7.71
2024-02-14T07:40:00.984Z,8.36
2024-02-14T07:42:28.421Z,9.74
2024-02-14T07:44:57.399Z,10.95
2024-02-14T07:47:24.852Z,12.19
2024-02-14T07:49:54.391Z,13.18
2024-02-14T07:52:22.518Z,12.99
2024-02-14T07:54:52.871Z,11.40
2024-02-14T07:57:20.292Z,10.11
2024-02-14T07:59:47.290Z,9.28
2024-02-14T08:02:15.046Z,8.50
2024-02-14T08:04:42.173Z,7.76
2024-02-14T08:07:10.242Z,7.22
2024-02-14T08:09:37.468Z,6.82
2024-02-14T08:12:04.865Z,6.77
2024-02-14T08:14:32.422Z,6.81
2024-02-14T08:16:59.721Z,6.87
2024-02-14T08:19:26.901Z,6.84
2024-02-14T08:21:58.959Z,6.72
2024-02-14T08:24:27.202Z,6.74
2024-02-14T08:26:56.873Z,6.46
2024-02-14T08:29:24.274Z,6.37
2024-02-14T08:31:51.760Z,6.27
2024-02-14T08:34:19.098Z,6.18
2024-02-14T08:36:46.671Z,6.17
2024-02-14T08:39:13.892Z,6.27
2024-02-14T08:41:46.147Z,7.26
2024-02-14T08:44:13.216Z,7.69
2024-02-14T08:46:43.434Z,8.11
2024-02-14T08:49:13.133Z,8.37
2024-02-14T08:51:40.686Z,8.24
2024-02-14T08:54:07.753Z,8.49
2024-02-14T08:56:35.403Z,8.78
2024-02-14T08:59:03.821Z,8.91
2024-02-14T09:01:31.697Z,8.91
2024-02-14T09:04:01.527Z,9.07
2024-02-14T09:06:29.246Z,9.63
2024-02-14T09:09:01.367Z,9.67
2024-02-14T09:11:28.810Z,9.52
2024-02-14T09:14:00.647Z,9.32
2024-02-14T09:16:27.977Z,9.28
2024-02-14T09:18:55.114Z,9.50
2024-02-14T09:21:23.189Z,9.43
2024-02-14T09:23:50.230Z,9.57
2024-02-14T09:26:20.355Z,9.88
2024-02-14T09:28:47.439Z,9.78
2024-02-14T09:31:18.640Z,10.09
2024-02-14T09:33:46.995Z,10.27
2024-02-14T09:36:15.496Z,10.64
2024-02-14T09:38:42.882Z,10.74
2024-02-14T09:41:17.755Z,10.64
2024-02-14T09:43:45.575Z,10.69
2024-02-14T09:46:16.473Z,10.88
2024-02-14T09:48:44.997Z,11.09
2024-02-14T09:51:13.833Z,11.31
2024-02-14T09:53:41.533Z,11.82
2024-02-14T09:56:13.446Z,11.66
2024-02-14T09:58:41.628Z,11.48
2024-02-14T10:01:08.961Z,11.47
2024-02-14T10:03:38.645Z,11.54
2024-02-14T10:06:06.260Z,11.65
2024-02-14T10:08:33.351Z,11.83
2024-02-14T10:11:01.228Z,11.75
2024-02-14T10:13:29.465Z,11.65
2024-02-14T10:15:57.232Z,11.98
2024-02-14T10:18:24.650Z,12.09
2024-02-14T10:20:56.049Z,11.97
2024-02-14T10:23:25.740Z,12.01
2024-02-14T10:25:57.708Z,12.24
2024-02-14T10:28:30.213Z,12.22
2024-02-14T10:31:06.683Z,12.18
2024-02-14T10:33:34.056Z,12.04
2024-02-14T10:36:04.663Z,12.01
2024-02-14T10:38:35.079Z,12.05
2024-02-14T10:41:06.317Z,12.00
2024-02-14T10:43:37.540Z,11.71
2024-02-14T10:46:09.200Z,11.32
2024-02-14T10:48:40.165Z,11.23
2024-02-14T10:51:09.991Z,11.52
2024-02-14T10:53:40.332Z,11.84
2024-02-14T10:56:08.769Z,12.09
2024-02-14T10:58:36.202Z,12.24
2024-02-14T11:01:04.542Z,12.50
2024-02-14T11:03:32.234Z,12.58
2024-02-14T11:06:03.951Z,12.54
2024-02-14T11:08:33.553Z,12.74
2024-02-14T11:11:01.683Z,12.64
2024-02-14T11:13:30.644Z,12.71
2024-02-14T11:16:01.552Z,12.60
2024-02-14T11:18:32.283Z,12.90
2024-02-14T11:20:59.844Z,13.00
2024-02-14T11:23:29.617Z,13.23
2024-02-14T11:26:04.557Z,13.31
2024-02-14T11:28:31.823Z,13.22
2024-02-14T11:31:06.844Z,13.03
2024-02-14T11:33:34.348Z,13.13
2024-02-14T11:36:08.413Z,12.96
2024-02-14T11:38:35.714Z,13.45
2024-02-14T11:41:05.012Z,13.83
2024-02-14T11:43:33.162Z,14.15
2024-02-14T11:46:00.560Z,14.00
2024-02-14T11:48:29.792Z,13.55
2024-02-14T11:50:57.449Z,13.89
2024-02-14T11:53:27.051Z,13.94
2024-02-14T11:55:54.304Z,13.50
2024-02-14T11:58:21.266Z,13.55
2024-02-14T12:00:51.888Z,13.54
2024-02-14T12:03:23.236Z,13.55
2024-02-14T12:05:52.689Z,13.29
2024-02-14T12:08:22.956Z,13.30
2024-02-14T12:10:53.169Z,13.22
2024-02-14T12:13:23.669Z,12.74
2024-02-14T12:15:52.456Z,12.83
2024-02-14T12:18:21.516Z,12.87
2024-02-14T12:20:55.603Z,12.84
2024-02-14T12:23:24.780Z,12.63
2024-02-14T12:25:52.099Z,12.73
2024-02-14T12:28:19.632Z,12.62
2024-02-14T12:30:58.589Z,12.59
2024-02-14T12:33:28.895Z,12.67
2024-02-14T12:35:57.754Z,12.79
2024-02-14T12:38:27.539Z,12.83
2024-02-14T12:40:55.778Z,12.93
2024-02-14T12:43:23.067Z,12.88
2024-02-14T12:45:52.956Z,12.72
2024-02-14T12:48:24.188Z,12.55
2024-02-14T12:50:54.081Z,12.67
2024-02-14T12:53:22.123Z,12.49
2024-02-14T12:55:49.460Z,12.42
2024-02-14T12:58:16.815Z,12.30
2024-02-14T13:00:45.960Z,12.31
2024-02-14T13:03:16.518Z,12.59
2024-02-14T13:05:46.377Z,12.61
2024-02-14T13:08:13.488Z,12.65
2024-02-14T13:10:40.938Z,12.73
2024-02-14T13:13:07.900Z,12.59
2024-02-14T13:15:35.570Z,12.49
2024-02-14T13:18:04.344Z,12.51
2024-02-14T13:20:32.343Z,12.53
2024-02-14T13:22:59.848Z,12.45
2024-02-14T13:25:29.513Z,12.46
2024-02-14T13:28:00.124Z,12.31
2024-02-14T13:30:27.587Z,12.05
2024-02-14T13:32:54.623Z,12.01
2024-02-14T13:35:22.696Z,12.01
2024-02-14T13:37:49.992Z,12.11
2024-02-14T13:40:19.738Z,12.19
2024-02-14T13:42:46.668Z,12.25
2024-02-14T13:45:13.958Z,12.23
2024-02-14T13:47:41.507Z,12.28
2024-02-14T13:50:10.062Z,12.31
2024-02-14T13:52:37.786Z,12.41
2024-02-14T13:55:09.138Z,12.50
2024-02-14T13:57:40.326Z,12.51
2024-02-14T14:00:12.828Z,12.59
2024-02-14T14:02:43.539Z,12.61
2024-02-14T14:05:12.012Z,12.53
2024-02-14T14:07:53.125Z,12.41
2024-02-14T14:10:27.554Z,12.30
2024-02-14T14:12:55.006Z,12.22
2024-02-14T14:15:25.752Z,12.14
2024-02-14T14:17:53.422Z,12.19
2024-02-14T14:20:21.662Z,12.24
2024-02-14T14:22:49.097Z,12.29
2024-02-14T14:25:16.684Z,12.38
2024-02-14T14:27:44.424Z,12.24
2024-02-14T14:30:13.328Z,12.08
2024-02-14T14:32:41.860Z,11.90
2024-02-14T14:35:12.315Z,11.79
2024-02-14T14:37:40.038Z,11.65
2024-02-14T14:40:09.537Z,11.54
2024-02-14T14:42:37.223Z,11.48
2024-02-14T14:45:05.200Z,11.35
2024-02-14T14:47:32.235Z,11.25
2024-02-14T14:50:00.545Z,11.17
2024-02-14T14:52:27.969Z,11.12
2024-02-14T14:54:55.211Z,11.13
2024-02-14T14:57:22.575Z,11.12
2024-02-14T14:59:50.155Z,11.09
2024-02-14T15:02:17.662Z,11.02
2024-02-14T15:04:47.677Z,11.00
2024-02-14T15:07:14.992Z,10.89
2024-02-14T15:09:43.741Z,10.90
2024-02-14T15:12:11.478Z,10.87
2024-02-14T15:14:41.336Z,10.82
2024-02-14T15:17:08.367Z,10.76
2024-02-14T15:19:35.683Z,10.80
2024-02-14T15:22:05.256Z,10.79
2024-02-14T15:24:32.578Z,10.74
2024-02-14T15:27:03.662Z,10.77
2024-02-14T15:29:49.992Z,10.74
2024-02-14T15:32:35.752Z,10.73
2024-02-14T15:35:06.258Z,10.70
2024-02-14T15:37:33.436Z,10.65
2024-02-14T15:40:00.910Z,10.63
2024-02-14T15:42:30.197Z,10.56
2024-02-14T15:44:57.549Z,10.51
2024-02-14T15:47:24.598Z,10.41
2024-02-14T15:49:54.431Z,10.33
2024-02-14T15:52:21.831Z,10.23
2024-02-14T15:54:49.207Z,10.04
2024-02-14T15:57:16.393Z,9.97
2024-02-14T15:59:44.203Z,9.91
2024-02-14T16:02:11.502Z,9.89
2024-02-14T16:04:39.816Z,9.92
2024-02-14T16:07:06.852Z,9.91
2024-02-14T16:09:38.024Z,9.73
2024-02-14T16:12:05.240Z,9.65
2024-02-14T16:14:33.608Z,9.51
2024-02-14T16:17:00.801Z,9.42
2024-02-14T16:19:28.367Z,9.33
2024-02-14T16:22:02.312Z,9.26
2024-02-14T16:24:37.809Z,9.15
2024-02-14T16:27:08.517Z,9.15
2024-02-14T16:29:39.577Z,9.19
2024-02-14T16:32:08.260Z,9.22
2024-02-14T16:34:35.816Z,9.19
2024-02-14T16:37:04.142Z,9.34
2024-02-14T16:39:41.278Z,9.33
2024-02-14T16:42:11.073Z,9.36
2024-02-14T16:44:39.490Z,9.43
2024-02-14T16:47:06.582Z,9.43
2024-02-14T16:49:34.036Z,9.38
2024-02-14T16:52:01.496Z,9.38
2024-02-14T16:54:29.778Z,9.35
2024-02-14T16:57:06.659Z,9.27
2024-02-14T16:59:34.699Z,9.30
2024-02-14T17:02:02.226Z,9.20
2024-02-14T17:04:29.673Z,9.12
2024-02-14T17:07:01.667Z,9.08
2024-02-14T17:09:29.462Z,9.07
2024-02-14T17:11:56.927Z,9.12
2024-02-14T17:14:27.840Z,9.20
2024-02-14T17:16:58.062Z,9.21
2024-02-14T17:19:26.286Z,9.26
2024-02-14T17:21:53.625Z,9.29
2024-02-14T17:24:21.033Z,9.29
2024-02-14T17:26:48.018Z,9.31
2024-02-14T17:29:15.434Z,9.27
2024-02-14T17:31:49.684Z,9.21
2024-02-14T17:34:17.128Z,9.17
2024-02-14T17:36:44.510Z,9.11
2024-02-14T17:39:11.919Z,9.06
2024-02-14T17:41:41.585Z,9.09
2024-02-14T17:44:09.331Z,9.13
2024-02-14T17:46:36.477Z,9.13
2024-02-14T17:49:04.400Z,9.11
2024-02-14T17:51:32.651Z,9.13
2024-02-14T17:54:00.107Z,9.15
2024-02-14T17:56:27.124Z,9.16
2024-02-14T17:58:54.620Z,9.11
2024-02-14T18:01:24.393Z,9.09
2024-02-14T18:03:51.702Z,9.08
2024-02-14T18:06:18.961Z,9.08
2024-02-14T18:08:46.334Z,9.17
2024-02-14T18:11:14.254Z,9.26
2024-02-14T18:13:42.165Z,9.26
2024-02-14T18:16:10.429Z,9.29
2024-02-14T18:18:38.050Z,9.31
2024-02-14T18:21:05.889Z,9.35
2024-02-14T18:23:33.625Z,9.34
2024-02-14T18:26:00.727Z,9.35
2024-02-14T18:28:31.933Z,9.32
2024-02-14T18:31:00.045Z,9.37
2024-02-14T18:33:27.757Z,9.35
2024-02-14T18:35:55.052Z,9.44
2024-02-14T18:38:26.774Z,9.52
2024-02-14T18:40:53.881Z,9.66
2024-02-14T18:43:21.541Z,9.76
2024-02-14T18:45:50.944Z,9.75
2024-02-14T18:48:18.291Z,9.77
2024-02-14T18:50:45.501Z,9.90
2024-02-14T18:53:12.715Z,9.92
2024-02-14T18:55:39.753Z,9.97
2024-02-14T18:58:07.251Z,9.99
2024-02-14T19:00:35.175Z,9.98
2024-02-14T19:03:03.984Z,10.00
2024-02-14T19:05:31.079Z,9.95
2024-02-14T19:07:58.488Z,9.95
2024-02-14T19:10:27.840Z,9.99
2024-02-14T19:12:59.731Z,10.01
2024-02-14T19:15:26.894Z,10.02
2024-02-14T19:17:54.421Z,10.03
2024-02-14T19:20:21.666Z,10.08
2024-02-14T19:22:49.246Z,10.10
2024-02-14T19:25:16.349Z,10.19
2024-02-14T19:27:43.730Z,10.22
2024-02-14T19:30:10.816Z,10.26
2024-02-14T19:32:40.715Z,10.20
2024-02-14T19:35:08.106Z,10.17
2024-02-14T19:37:35.615Z,10.22
2024-02-14T19:40:07.784Z,10.25
2024-02-14T19:42:35.293Z,10.26
2024-02-14T19:45:02.303Z,10.23
2024-02-14T19:47:30.297Z,10.23
2024-02-14T19:49:57.872Z,10.25
2024-02-14T19:52:27.004Z,10.23
2024-02-14T19:54:54.337Z,10.27
2024-02-14T19:57:22.154Z,10.34
2024-02-14T19:59:49.357Z,10.29
2024-02-14T20:02:17.022Z,10.26
2024-02-14T20:04:45.168Z,10.23
2024-02-14T20:07:12.853Z,10.24
2024-02-14T20:09:41.239Z,10.28
2024-02-14T20:12:11.281Z,10.28
2024-02-14T20:14:40.055Z,10.23
2024-02-14T20:17:07.960Z,10.27
2024-02-14T20:19:36.265Z,10.31
2024-02-14T20:22:03.922Z,10.33
2024-02-14T20:24:34.523Z,10.36
2024-02-14T20:27:01.941Z,10.36
2024-02-14T20:29:29.063Z,10.35
2024-02-14T20:31:58.985Z,10.37
2024-02-14T20:34:28.510Z,10.40
2024-02-14T20:36:56.123Z,10.42
2024-02-14T20:39:24.707Z,10.39
2024-02-14T20:41:57.272Z,10.35
2024-02-14T20:44:26.818Z,10.36
2024-02-14T20:46:54.383Z,10.39
2024-02-14T20:49:24.116Z,10.42
2024-02-14T20:51:51.596Z,10.35
2024-02-14T20:54:18.780Z,10.35
2024-02-14T20:56:46.323Z,10.36
2024-02-14T20:59:16.821Z,10.38
2024-02-14T21:01:44.632Z,10.36
2024-02-14T21:04:11.791Z,10.31
2024-02-14T21:06:39.513Z,10.33
2024-02-14T21:09:07.327Z,10.33
2024-02-14T21:11:37.225Z,10.29
2024-02-14T21:14:04.136Z,10.31
2024-02-14T21:19:24.711Z,10.34
2024-02-14T21:21:52.133Z,10.43
2024-02-14T21:24:19.560Z,10.43
2024-02-14T21:26:49.887Z,10.42
2024-02-14T21:29:16.865Z,10.41
2024-02-14T21:31:44.567Z,10.39
2024-02-14T21:34:11.881Z,10.41
2024-02-14T21:36:41.807Z,10.44
2024-02-14T21:39:12.314Z,10.48
2024-02-14T21:41:39.734Z,10.46
2024-02-14T21:44:06.963Z,10.44
2024-02-14T21:46:37.068Z,10.35
2024-02-14T21:49:15.788Z,10.32
2024-02-14T21:51:49.427Z,10.30
2024-02-14T21:54:16.447Z,10.28
2024-02-14T21:56:44.360Z,10.29
2024-02-14T21:59:12.031Z,10.31
2024-02-14T22:01:39.576Z,10.31
2024-02-14T22:04:06.633Z,10.33
2024-02-14T22:06:34.449Z,10.29
2024-02-14T22:09:01.675Z,10.26
2024-02-14T22:11:29.259Z,10.19
2024-02-14T22:13:57.580Z,10.13
2024-02-14T22:16:26.158Z,10.06
2024-02-14T22:18:54.080Z,10.09
2024-02-14T22:21:21.564Z,10.02
2024-02-14T22:23:48.925Z,10.00
2024-02-14T22:26:17.097Z,9.98
2024-02-14T22:28:44.535Z,9.94
2024-02-14T22:31:12.827Z,9.89
2024-02-14T22:33:40.200Z,9.93
2024-02-14T22:36:11.924Z,9.89
2024-02-14T22:38:39.344Z,9.87
2024-02-14T22:41:08.376Z,9.92
2024-02-14T22:43:35.460Z,9.91
2024-02-14T22:46:02.989Z,9.95
2024-02-14T22:48:32.958Z,9.99
2024-02-14T22:51:00.659Z,10.01
2024-02-14T22:53:28.207Z,9.96
2024-02-14T22:55:55.687Z,9.93
2024-02-14T22:58:22.799Z,9.89
2024-02-14T23:00:50.174Z,9.85
2024-02-14T23:03:17.718Z,9.84
2024-02-14T23:05:45.428Z,9.81
2024-02-14T23:08:12.654Z,9.76
2024-02-14T23:10:40.417Z,9.76
2024-02-14T23:13:07.984Z,9.70
2024-02-14T23:15:35.447Z,9.69
2024-02-14T23:18:02.506Z,9.60
2024-02-14T23:20:30.796Z,9.52
2024-02-14T23:22:57.832Z,9.55
2024-02-14T23:25:25.262Z,9.44
2024-02-14T23:27:52.550Z,9.34
2024-02-14T23:30:20.216Z,9.29
2024-02-14T23:32:47.396Z,9.15
2024-02-14T23:35:15.188Z,9.13
2024-02-14T23:37:45.695Z,9.08
2024-02-14T23:40:13.540Z,8.98
2024-02-14T23:42:43.590Z,8.94
2024-02-14T23:45:12.274Z,8.93
2024-02-14T23:47:40.206Z,8.86
2024-02-14T23:50:11.791Z,8.80
2024-02-14T23:52:40.132Z,8.74
2024-02-14T23:55:10.886Z,8.71
2024-02-14T23:57:38.061Z,8.72
